sensor_id;sensor_type;location;lat;lon;timestamp;P1;durP1;ratioP1;P2;durP2;ratioP2
6864;SDS011;3471;49.678;8.388;2023-05-21T00:00:14;19.92;;;14.98;;
6864;SDS011;3471;49.678;8.388;2023-05-21T00:02:40;16.20;;;13.38;;
6864;SDS011;3471;49.678;8.388;2023-05-21T00:05:06;15.50;;;12.57;;
6864;SDS011;3471;49.678;8.388;2023-05-21T00:07:37;19.33;;;16.47;;
6864;SDS011;3471;49.678;8.388;2023-05-21T00:10:03;16.60;;;13.87;;
6864;SDS011;3471;49.678;8.388;2023-05-21T00:12:29;17.80;;;14.50;;
6864;SDS011;3471;49.678;8.388;2023-05-21T00:14:56;16.00;;;12.75;;
6864;SDS011;3471;49.678;8.388;2023-05-21T00:17:22;18.90;;;16.30;;
6864;SDS011;3471;49.678;8.388;2023-05-21T00:19:47;21.30;;;16.70;;
6864;SDS011;3471;49.678;8.388;2023-05-21T00:22:14;18.98;;;14.27;;
6864;SDS011;3471;49.678;8.388;2023-05-21T00:24:40;17.30;;;12.87;;
6864;SDS011;3471;49.678;8.388;2023-05-21T00:27:05;22.65;;;16.77;;
6864;SDS011;3471;49.678;8.388;2023-05-21T00:29:31;15.35;;;13.32;;
6864;SDS011;3471;49.678;8.388;2023-05-21T00:31:56;22.90;;;16.23;;
6864;SDS011;3471;49.678;8.388;2023-05-21T00:34:22;14.88;;;13.05;;
6864;SDS011;3471;49.678;8.388;2023-05-21T00:36:47;18.17;;;14.75;;
6864;SDS011;3471;49.678;8.388;2023-05-21T00:39:13;22.27;;;15.18;;
6864;SDS011;3471;49.678;8.388;2023-05-21T00:41:39;17.92;;;12.95;;
6864;SDS011;3471;49.678;8.388;2023-05-21T00:44:06;24.15;;;13.35;;
6864;SDS011;3471;49.678;8.388;2023-05-21T00:46:33;17.40;;;14.95;;
6864;SDS011;3471;49.678;8.388;2023-05-21T00:48:59;19.65;;;13.65;;
6864;SDS011;3471;49.678;8.388;2023-05-21T00:51:25;18.75;;;14.82;;
6864;SDS011;3471;49.678;8.388;2023-05-21T00:53:54;20.00;;;13.95;;
6864;SDS011;3471;49.678;8.388;2023-05-21T00:56:21;19.48;;;11.98;;
6864;SDS011;3471;49.678;8.388;2023-05-21T00:58:48;17.85;;;13.77;;
6864;SDS011;3471;49.678;8.388;2023-05-21T01:01:16;49.00;;;17.00;;
6864;SDS011;3471;49.678;8.388;2023-05-21T01:03:42;20.90;;;14.93;;
6864;SDS011;3471;49.678;8.388;2023-05-21T01:06:08;20.50;;;13.52;;
6864;SDS011;3471;49.678;8.388;2023-05-21T01:08:35;16.77;;;14.98;;
6864;SDS011;3471;49.678;8.388;2023-05-21T01:11:02;19.75;;;13.43;;
6864;SDS011;3471;49.678;8.388;2023-05-21T01:13:30;20.17;;;13.40;;
6864;SDS011;3471;49.678;8.388;2023-05-21T01:15:57;25.60;;;16.25;;
6864;SDS011;3471;49.678;8.388;2023-05-21T01:18:23;18.67;;;13.82;;
6864;SDS011;3471;49.678;8.388;2023-05-21T01:20:50;25.95;;;15.50;;
6864;SDS011;3471;49.678;8.388;2023-05-21T01:23:17;20.58;;;14.55;;
6864;SDS011;3471;49.678;8.388;2023-05-21T01:25:43;16.42;;;14.00;;
6864;SDS011;3471;49.678;8.388;2023-05-21T01:28:09;16.73;;;13.80;;
6864;SDS011;3471;49.678;8.388;2023-05-21T01:30:36;16.75;;;12.65;;
6864;SDS011;3471;49.678;8.388;2023-05-21T01:33:03;21.65;;;13.93;;
6864;SDS011;3471;49.678;8.388;2023-05-21T01:35:46;19.33;;;12.52;;
6864;SDS011;3471;49.678;8.388;2023-05-21T01:38:19;14.45;;;12.95;;
6864;SDS011;3471;49.678;8.388;2023-05-21T01:40:55;17.52;;;13.05;;
6864;SDS011;3471;49.678;8.388;2023-05-21T01:43:27;19.40;;;13.85;;
6864;SDS011;3471;49.678;8.388;2023-05-21T01:45:55;15.90;;;13.55;;
6864;SDS011;3471;49.678;8.388;2023-05-21T01:48:22;16.95;;;15.25;;
6864;SDS011;3471;49.678;8.388;2023-05-21T01:50:53;18.58;;;13.63;;
6864;SDS011;3471;49.678;8.388;2023-05-21T01:53:22;17.23;;;14.38;;
6864;SDS011;3471;49.678;8.388;2023-05-21T01:55:47;17.93;;;13.77;;
6864;SDS011;3471;49.678;8.388;2023-05-21T01:58:13;15.23;;;12.00;;
6864;SDS011;3471;49.678;8.388;2023-05-21T02:00:42;17.60;;;13.45;;
6864;SDS011;3471;49.678;8.388;2023-05-21T02:03:09;15.37;;;13.77;;
6864;SDS011;3471;49.678;8.388;2023-05-21T02:05:35;18.63;;;15.07;;
6864;SDS011;3471;49.678;8.388;2023-05-21T02:08:01;24.42;;;13.02;;
6864;SDS011;3471;49.678;8.388;2023-05-21T02:10:26;17.77;;;14.73;;
6864;SDS011;3471;49.678;8.388;2023-05-21T02:12:52;27.40;;;13.55;;
6864;SDS011;3471;49.678;8.388;2023-05-21T02:15:18;20.58;;;15.48;;
6864;SDS011;3471;49.678;8.388;2023-05-21T02:17:46;22.40;;;14.00;;
6864;SDS011;3471;49.678;8.388;2023-05-21T02:20:15;15.60;;;13.60;;
6864;SDS011;3471;49.678;8.388;2023-05-21T02:22:44;18.40;;;14.30;;
6864;SDS011;3471;49.678;8.388;2023-05-21T02:25:11;18.52;;;13.25;;
6864;SDS011;3471;49.678;8.388;2023-05-21T02:27:40;17.48;;;12.85;;
6864;SDS011;3471;49.678;8.388;2023-05-21T02:30:07;14.60;;;13.10;;
6864;SDS011;3471;49.678;8.388;2023-05-21T02:32:35;17.85;;;13.88;;
6864;SDS011;3471;49.678;8.388;2023-05-21T02:35:01;21.92;;;13.68;;
6864;SDS011;3471;49.678;8.388;2023-05-21T02:37:28;22.38;;;13.38;;
6864;SDS011;3471;49.678;8.388;2023-05-21T02:39:57;20.98;;;14.68;;
6864;SDS011;3471;49.678;8.388;2023-05-21T02:42:24;17.55;;;14.10;;
6864;SDS011;3471;49.678;8.388;2023-05-21T02:44:50;16.00;;;13.57;;
6864;SDS011;3471;49.678;8.388;2023-05-21T02:47:19;16.95;;;12.45;;
6864;SDS011;3471;49.678;8.388;2023-05-21T02:49:48;17.50;;;12.75;;
6864;SDS011;3471;49.678;8.388;2023-05-21T02:52:14;19.58;;;12.85;;
6864;SDS011;3471;49.678;8.388;2023-05-21T02:54:42;14.70;;;13.20;;
6864;SDS011;3471;49.678;8.388;2023-05-21T02:57:08;17.90;;;13.60;;
6864;SDS011;3471;49.678;8.388;2023-05-21T02:59:34;17.25;;;11.60;;
6864;SDS011;3471;49.678;8.388;2023-05-21T03:01:59;18.95;;;14.90;;
6864;SDS011;3471;49.678;8.388;2023-05-21T03:04:25;13.50;;;11.37;;
6864;SDS011;3471;49.678;8.388;2023-05-21T03:06:52;14.50;;;12.57;;
6864;SDS011;3471;49.678;8.388;2023-05-21T03:09:22;14.65;;;10.95;;
6864;SDS011;3471;49.678;8.388;2023-05-21T03:11:48;20.13;;;13.98;;
6864;SDS011;3471;49.678;8.388;2023-05-21T03:14:14;16.58;;;11.65;;
6864;SDS011;3471;49.678;8.388;2023-05-21T03:16:42;31.75;;;14.10;;
6864;SDS011;3471;49.678;8.388;2023-05-21T03:19:09;20.80;;;15.37;;
6864;SDS011;3471;49.678;8.388;2023-05-21T03:21:36;15.57;;;12.53;;
6864;SDS011;3471;49.678;8.388;2023-05-21T03:24:03;15.55;;;11.73;;
6864;SDS011;3471;49.678;8.388;2023-05-21T03:26:29;17.15;;;12.90;;
6864;SDS011;3471;49.678;8.388;2023-05-21T03:28:55;20.47;;;15.07;;
6864;SDS011;3471;49.678;8.388;2023-05-21T03:31:24;19.13;;;12.63;;
6864;SDS011;3471;49.678;8.388;2023-05-21T03:33:51;23.42;;;13.77;;
6864;SDS011;3471;49.678;8.388;2023-05-21T03:36:17;24.40;;;15.25;;
6864;SDS011;3471;49.678;8.388;2023-05-21T03:38:43;19.97;;;14.83;;
6864;SDS011;3471;49.678;8.388;2023-05-21T03:41:09;21.73;;;14.53;;
6864;SDS011;3471;49.678;8.388;2023-05-21T03:43:35;18.98;;;14.20;;
6864;SDS011;3471;49.678;8.388;2023-05-21T03:46:00;19.80;;;15.52;;
6864;SDS011;3471;49.678;8.388;2023-05-21T03:48:26;16.95;;;12.65;;
6864;SDS011;3471;49.678;8.388;2023-05-21T03:50:51;15.47;;;12.87;;
6864;SDS011;3471;49.678;8.388;2023-05-21T03:53:17;24.67;;;15.37;;
6864;SDS011;3471;49.678;8.388;2023-05-21T03:55:43;16.70;;;13.50;;
6864;SDS011;3471;49.678;8.388;2023-05-21T03:58:08;15.70;;;12.88;;
6864;SDS011;3471;49.678;8.388;2023-05-21T04:00:35;17.27;;;14.05;;
6864;SDS011;3471;49.678;8.388;2023-05-21T04:03:01;18.30;;;14.07;;
6864;SDS011;3471;49.678;8.388;2023-05-21T04:05:27;20.77;;;13.13;;
6864;SDS011;3471;49.678;8.388;2023-05-21T04:07:53;19.23;;;14.00;;
6864;SDS011;3471;49.678;8.388;2023-05-21T04:10:19;17.40;;;12.17;;
6864;SDS011;3471;49.678;8.388;2023-05-21T04:12:45;20.17;;;13.75;;
6864;SDS011;3471;49.678;8.388;2023-05-21T04:15:13;16.57;;;12.97;;
6864;SDS011;3471;49.678;8.388;2023-05-21T04:17:42;17.30;;;11.13;;
6864;SDS011;3471;49.678;8.388;2023-05-21T04:20:09;18.08;;;14.82;;
6864;SDS011;3471;49.678;8.388;2023-05-21T04:22:36;16.45;;;14.55;;
6864;SDS011;3471;49.678;8.388;2023-05-21T04:25:01;18.67;;;13.83;;
6864;SDS011;3471;49.678;8.388;2023-05-21T04:27:27;29.30;;;15.00;;
6864;SDS011;3471;49.678;8.388;2023-05-21T04:29:53;18.40;;;13.33;;
6864;SDS011;3471;49.678;8.388;2023-05-21T04:32:18;20.90;;;13.55;;
6864;SDS011;3471;49.678;8.388;2023-05-21T04:34:44;14.23;;;12.38;;
6864;SDS011;3471;49.678;8.388;2023-05-21T04:37:10;15.97;;;13.57;;
6864;SDS011;3471;49.678;8.388;2023-05-21T04:39:36;17.80;;;14.40;;
6864;SDS011;3471;49.678;8.388;2023-05-21T04:42:01;14.03;;;11.50;;
6864;SDS011;3471;49.678;8.388;2023-05-21T04:44:27;24.73;;;12.48;;
6864;SDS011;3471;49.678;8.388;2023-05-21T04:46:53;19.50;;;13.40;;
6864;SDS011;3471;49.678;8.388;2023-05-21T04:49:21;21.52;;;13.75;;
6864;SDS011;3471;49.678;8.388;2023-05-21T04:51:46;15.82;;;13.30;;
6864;SDS011;3471;49.678;8.388;2023-05-21T04:54:16;14.25;;;12.18;;
6864;SDS011;3471;49.678;8.388;2023-05-21T04:56:42;17.17;;;13.37;;
6864;SDS011;3471;49.678;8.388;2023-05-21T04:59:08;24.05;;;13.90;;
6864;SDS011;3471;49.678;8.388;2023-05-21T05:01:34;12.95;;;11.60;;
6864;SDS011;3471;49.678;8.388;2023-05-21T05:04:02;20.35;;;13.00;;
6864;SDS011;3471;49.678;8.388;2023-05-21T05:06:28;18.95;;;14.23;;
6864;SDS011;3471;49.678;8.388;2023-05-21T05:08:53;22.13;;;13.40;;
6864;SDS011;3471;49.678;8.388;2023-05-21T05:11:19;12.87;;;11.57;;
6864;SDS011;3471;49.678;8.388;2023-05-21T05:13:45;16.20;;;13.67;;
6864;SDS011;3471;49.678;8.388;2023-05-21T05:16:10;20.13;;;13.47;;
6864;SDS011;3471;49.678;8.388;2023-05-21T05:18:36;15.18;;;11.20;;
6864;SDS011;3471;49.678;8.388;2023-05-21T05:21:02;17.97;;;14.30;;
6864;SDS011;3471;49.678;8.388;2023-05-21T05:23:27;19.30;;;13.23;;
6864;SDS011;3471;49.678;8.388;2023-05-21T05:25:53;12.87;;;11.47;;
6864;SDS011;3471;49.678;8.388;2023-05-21T05:28:19;17.87;;;14.17;;
6864;SDS011;3471;49.678;8.388;2023-05-21T05:30:44;15.83;;;13.63;;
6864;SDS011;3471;49.678;8.388;2023-05-21T05:33:10;23.77;;;13.90;;
6864;SDS011;3471;49.678;8.388;2023-05-21T05:35:36;14.37;;;12.87;;
6864;SDS011;3471;49.678;8.388;2023-05-21T05:38:01;17.30;;;13.30;;
6864;SDS011;3471;49.678;8.388;2023-05-21T05:40:27;20.38;;;15.10;;
6864;SDS011;3471;49.678;8.388;2023-05-21T05:42:53;17.77;;;13.50;;
6864;SDS011;3471;49.678;8.388;2023-05-21T05:45:18;17.17;;;13.73;;
6864;SDS011;3471;49.678;8.388;2023-05-21T05:47:44;17.30;;;14.57;;
6864;SDS011;3471;49.678;8.388;2023-05-21T05:50:10;19.90;;;14.77;;
6864;SDS011;3471;49.678;8.388;2023-05-21T05:52:36;23.98;;;11.95;;
6864;SDS011;3471;49.678;8.388;2023-05-21T05:55:01;21.30;;;13.70;;
6864;SDS011;3471;49.678;8.388;2023-05-21T05:57:27;15.93;;;12.87;;
6864;SDS011;3471;49.678;8.388;2023-05-21T05:59:53;16.75;;;13.25;;
6864;SDS011;3471;49.678;8.388;2023-05-21T06:02:18;16.85;;;12.98;;
6864;SDS011;3471;49.678;8.388;2023-05-21T06:04:44;17.77;;;13.00;;
6864;SDS011;3471;49.678;8.388;2023-05-21T06:07:10;17.75;;;12.32;;
6864;SDS011;3471;49.678;8.388;2023-05-21T06:09:35;17.55;;;12.75;;
6864;SDS011;3471;49.678;8.388;2023-05-21T06:12:03;17.77;;;14.30;;
6864;SDS011;3471;49.678;8.388;2023-05-21T06:14:29;14.73;;;12.63;;
6864;SDS011;3471;49.678;8.388;2023-05-21T06:16:55;14.93;;;12.70;;
6864;SDS011;3471;49.678;8.388;2023-05-21T06:19:21;15.43;;;12.45;;
6864;SDS011;3471;49.678;8.388;2023-05-21T06:21:46;19.53;;;14.60;;
6864;SDS011;3471;49.678;8.388;2023-05-21T06:24:12;12.77;;;11.53;;
6864;SDS011;3471;49.678;8.388;2023-05-21T06:26:37;13.97;;;12.33;;
6864;SDS011;3471;49.678;8.388;2023-05-21T06:29:03;18.00;;;13.30;;
6864;SDS011;3471;49.678;8.388;2023-05-21T06:31:29;15.87;;;14.03;;
6864;SDS011;3471;49.678;8.388;2023-05-21T06:33:56;14.57;;;12.93;;
6864;SDS011;3471;49.678;8.388;2023-05-21T06:36:22;13.25;;;11.85;;
6864;SDS011;3471;49.678;8.388;2023-05-21T06:38:53;16.00;;;13.57;;
6864;SDS011;3471;49.678;8.388;2023-05-21T06:41:19;13.63;;;11.02;;
6864;SDS011;3471;49.678;8.388;2023-05-21T06:43:45;19.33;;;11.57;;
6864;SDS011;3471;49.678;8.388;2023-05-21T06:46:11;17.27;;;12.60;;
6864;SDS011;3471;49.678;8.388;2023-05-21T06:48:36;15.10;;;13.60;;
6864;SDS011;3471;49.678;8.388;2023-05-21T06:51:02;17.52;;;12.20;;
6864;SDS011;3471;49.678;8.388;2023-05-21T06:53:27;16.30;;;14.20;;
6864;SDS011;3471;49.678;8.388;2023-05-21T06:55:53;15.35;;;12.68;;
6864;SDS011;3471;49.678;8.388;2023-05-21T06:58:18;17.65;;;12.55;;
6864;SDS011;3471;49.678;8.388;2023-05-21T07:00:45;15.90;;;12.75;;
6864;SDS011;3471;49.678;8.388;2023-05-21T07:03:11;19.92;;;13.73;;
6864;SDS011;3471;49.678;8.388;2023-05-21T07:05:36;18.73;;;13.75;;
6864;SDS011;3471;49.678;8.388;2023-05-21T07:08:02;22.52;;;12.75;;
6864;SDS011;3471;49.678;8.388;2023-05-21T07:10:28;13.63;;;10.80;;
6864;SDS011;3471;49.678;8.388;2023-05-21T07:12:53;15.68;;;12.38;;
6864;SDS011;3471;49.678;8.388;2023-05-21T07:15:19;17.30;;;13.30;;
6864;SDS011;3471;49.678;8.388;2023-05-21T07:17:44;14.45;;;12.75;;
6864;SDS011;3471;49.678;8.388;2023-05-21T07:20:10;12.43;;;11.23;;
6864;SDS011;3471;49.678;8.388;2023-05-21T07:22:37;18.20;;;12.05;;
6864;SDS011;3471;49.678;8.388;2023-05-21T07:25:03;16.00;;;13.05;;
6864;SDS011;3471;49.678;8.388;2023-05-21T07:27:29;15.40;;;11.65;;
6864;SDS011;3471;49.678;8.388;2023-05-21T07:29:55;15.90;;;14.27;;
6864;SDS011;3471;49.678;8.388;2023-05-21T07:32:21;22.10;;;12.27;;
6864;SDS011;3471;49.678;8.388;2023-05-21T07:34:46;14.40;;;10.87;;
6864;SDS011;3471;49.678;8.388;2023-05-21T07:37:12;17.80;;;11.70;;
6864;SDS011;3471;49.678;8.388;2023-05-21T07:39:38;17.50;;;14.03;;
6864;SDS011;3471;49.678;8.388;2023-05-21T07:42:04;15.43;;;12.90;;
6864;SDS011;3471;49.678;8.388;2023-05-21T07:44:29;12.53;;;11.20;;
6864;SDS011;3471;49.678;8.388;2023-05-21T07:46:55;13.52;;;12.07;;
6864;SDS011;3471;49.678;8.388;2023-05-21T07:49:21;20.50;;;14.23;;
6864;SDS011;3471;49.678;8.388;2023-05-21T07:51:47;15.35;;;12.68;;
6864;SDS011;3471;49.678;8.388;2023-05-21T07:54:13;13.60;;;12.20;;
6864;SDS011;3471;49.678;8.388;2023-05-21T07:56:38;18.93;;;12.60;;
6864;SDS011;3471;49.678;8.388;2023-05-21T07:59:04;13.60;;;12.10;;
6864;SDS011;3471;49.678;8.388;2023-05-21T08:01:30;15.13;;;12.93;;
6864;SDS011;3471;49.678;8.388;2023-05-21T08:03:56;19.13;;;13.82;;
6864;SDS011;3471;49.678;8.388;2023-05-21T08:06:24;16.13;;;12.70;;
6864;SDS011;3471;49.678;8.388;2023-05-21T08:08:50;13.18;;;10.85;;
6864;SDS011;3471;49.678;8.388;2023-05-21T08:11:18;15.82;;;11.30;;
6864;SDS011;3471;49.678;8.388;2023-05-21T08:13:43;12.85;;;11.50;;
6864;SDS011;3471;49.678;8.388;2023-05-21T08:16:11;15.55;;;13.20;;
6864;SDS011;3471;49.678;8.388;2023-05-21T08:18:37;15.63;;;12.20;;
6864;SDS011;3471;49.678;8.388;2023-05-21T08:21:02;19.80;;;11.68;;
6864;SDS011;3471;49.678;8.388;2023-05-21T08:23:29;13.63;;;12.20;;
6864;SDS011;3471;49.678;8.388;2023-05-21T08:25:54;15.80;;;12.30;;
6864;SDS011;3471;49.678;8.388;2023-05-21T08:28:20;20.20;;;13.82;;
6864;SDS011;3471;49.678;8.388;2023-05-21T08:30:47;12.33;;;11.03;;
6864;SDS011;3471;49.678;8.388;2023-05-21T08:33:13;13.27;;;11.97;;
6864;SDS011;3471;49.678;8.388;2023-05-21T08:35:38;14.40;;;12.77;;
6864;SDS011;3471;49.678;8.388;2023-05-21T08:38:04;12.57;;;10.53;;
6864;SDS011;3471;49.678;8.388;2023-05-21T08:40:30;13.35;;;10.02;;
6864;SDS011;3471;49.678;8.388;2023-05-21T08:42:55;13.80;;;11.00;;
6864;SDS011;3471;49.678;8.388;2023-05-21T08:45:21;13.73;;;11.30;;
6864;SDS011;3471;49.678;8.388;2023-05-21T08:47:48;13.00;;;11.73;;
6864;SDS011;3471;49.678;8.388;2023-05-21T08:50:25;11.93;;;10.63;;
6864;SDS011;3471;49.678;8.388;2023-05-21T08:52:51;15.45;;;11.63;;
6864;SDS011;3471;49.678;8.388;2023-05-21T08:55:19;15.43;;;13.07;;
6864;SDS011;3471;49.678;8.388;2023-05-21T08:57:46;13.10;;;11.70;;
6864;SDS011;3471;49.678;8.388;2023-05-21T09:00:12;15.57;;;11.97;;
6864;SDS011;3471;49.678;8.388;2023-05-21T09:02:38;13.87;;;12.20;;
6864;SDS011;3471;49.678;8.388;2023-05-21T09:05:05;13.30;;;11.90;;
6864;SDS011;3471;49.678;8.388;2023-05-21T09:07:33;12.85;;;10.32;;
6864;SDS011;3471;49.678;8.388;2023-05-21T09:10:06;16.27;;;11.80;;
6864;SDS011;3471;49.678;8.388;2023-05-21T09:12:36;12.63;;;11.43;;
6864;SDS011;3471;49.678;8.388;2023-05-21T09:15:02;10.48;;;9.50;;
6864;SDS011;3471;49.678;8.388;2023-05-21T09:17:28;15.63;;;10.95;;
6864;SDS011;3471;49.678;8.388;2023-05-21T09:20:12;13.35;;;11.13;;
6864;SDS011;3471;49.678;8.388;2023-05-21T09:25:13;13.05;;;10.38;;
6864;SDS011;3471;49.678;8.388;2023-05-21T09:27:40;11.93;;;10.30;;
6864;SDS011;3471;49.678;8.388;2023-05-21T09:30:10;14.65;;;11.60;;
6864;SDS011;3471;49.678;8.388;2023-05-21T09:32:37;14.65;;;13.13;;
6864;SDS011;3471;49.678;8.388;2023-05-21T09:37:37;15.40;;;11.55;;
6864;SDS011;3471;49.678;8.388;2023-05-21T09:40:12;13.10;;;10.93;;
6864;SDS011;3471;49.678;8.388;2023-05-21T09:42:45;12.70;;;9.88;;
6864;SDS011;3471;49.678;8.388;2023-05-21T09:45:16;17.25;;;11.40;;
6864;SDS011;3471;49.678;8.388;2023-05-21T09:47:43;13.00;;;11.60;;
6864;SDS011;3471;49.678;8.388;2023-05-21T09:50:17;18.65;;;12.95;;
6864;SDS011;3471;49.678;8.388;2023-05-21T09:52:43;12.13;;;10.82;;
6864;SDS011;3471;49.678;8.388;2023-05-21T09:55:10;13.48;;;11.30;;
6864;SDS011;3471;49.678;8.388;2023-05-21T09:57:43;19.38;;;12.27;;
6864;SDS011;3471;49.678;8.388;2023-05-21T10:00:22;12.70;;;11.48;;
6864;SDS011;3471;49.678;8.388;2023-05-21T10:02:53;11.97;;;10.70;;
6864;SDS011;3471;49.678;8.388;2023-05-21T10:05:20;16.70;;;12.27;;
6864;SDS011;3471;49.678;8.388;2023-05-21T10:07:51;20.17;;;11.77;;
6864;SDS011;3471;49.678;8.388;2023-05-21T10:10:20;21.60;;;10.60;;
6864;SDS011;3471;49.678;8.388;2023-05-21T10:12:49;17.40;;;11.20;;
6864;SDS011;3471;49.678;8.388;2023-05-21T10:15:19;12.87;;;11.67;;
6864;SDS011;3471;49.678;8.388;2023-05-21T10:17:48;14.55;;;12.20;;
6864;SDS011;3471;49.678;8.388;2023-05-21T10:20:14;15.30;;;12.45;;
6864;SDS011;3471;49.678;8.388;2023-05-21T10:22:41;16.48;;;12.88;;
6864;SDS011;3471;49.678;8.388;2023-05-21T10:25:08;12.00;;;10.80;;
6864;SDS011;3471;49.678;8.388;2023-05-21T10:27:37;11.50;;;10.30;;
6864;SDS011;3471;49.678;8.388;2023-05-21T10:30:03;11.48;;;10.27;;
6864;SDS011;3471;49.678;8.388;2023-05-21T10:32:30;13.73;;;10.40;;
6864;SDS011;3471;49.678;8.388;2023-05-21T10:34:56;14.07;;;12.63;;
6864;SDS011;3471;49.678;8.388;2023-05-21T10:37:22;9.73;;;8.83;;
6864;SDS011;3471;49.678;8.388;2023-05-21T10:39:52;8.73;;;7.93;;
6864;SDS011;3471;49.678;8.388;2023-05-21T10:59:06;9.27;;;8.23;;
6864;SDS011;3471;49.678;8.388;2023-05-21T11:01:36;12.45;;;8.15;;
6864;SDS011;3471;49.678;8.388;2023-05-21T11:04:02;10.87;;;9.13;;
6864;SDS011;3471;49.678;8.388;2023-05-21T11:06:29;9.40;;;8.17;;
6864;SDS011;3471;49.678;8.388;2023-05-21T11:08:55;10.70;;;9.20;;
6864;SDS011;3471;49.678;8.388;2023-05-21T11:12:06;9.75;;;7.75;;
6864;SDS011;3471;49.678;8.388;2023-05-21T11:19:38;12.25;;;10.05;;
6864;SDS011;3471;49.678;8.388;2023-05-21T11:22:29;9.35;;;8.43;;
6864;SDS011;3471;49.678;8.388;2023-05-21T11:24:54;11.07;;;7.97;;
6864;SDS011;3471;49.678;8.388;2023-05-21T11:30:04;9.30;;;7.38;;
6864;SDS011;3471;49.678;8.388;2023-05-21T11:32:30;8.20;;;7.50;;
6864;SDS011;3471;49.678;8.388;2023-05-21T11:34:58;8.95;;;7.60;;
6864;SDS011;3471;49.678;8.388;2023-05-21T11:37:25;8.52;;;7.72;;
6864;SDS011;3471;49.678;8.388;2023-05-21T11:39:53;8.73;;;7.93;;
6864;SDS011;3471;49.678;8.388;2023-05-21T11:44:52;9.05;;;8.13;;
6864;SDS011;3471;49.678;8.388;2023-05-21T11:47:23;15.55;;;9.70;;
6864;SDS011;3471;49.678;8.388;2023-05-21T11:49:50;17.10;;;9.25;;
6864;SDS011;3471;49.678;8.388;2023-05-21T11:52:15;9.15;;;8.30;;
6864;SDS011;3471;49.678;8.388;2023-05-21T11:54:42;11.40;;;8.60;;
6864;SDS011;3471;49.678;8.388;2023-05-21T11:59:36;11.50;;;9.13;;
6864;SDS011;3471;49.678;8.388;2023-05-21T12:02:02;11.45;;;9.98;;
6864;SDS011;3471;49.678;8.388;2023-05-21T12:04:29;12.43;;;9.85;;
6864;SDS011;3471;49.678;8.388;2023-05-21T12:06:55;10.00;;;9.00;;
6864;SDS011;3471;49.678;8.388;2023-05-21T12:09:22;10.93;;;9.18;;
6864;SDS011;3471;49.678;8.388;2023-05-21T12:11:48;11.13;;;8.83;;
6864;SDS011;3471;49.678;8.388;2023-05-21T12:14:15;10.70;;;9.15;;
6864;SDS011;3471;49.678;8.388;2023-05-21T12:16:41;11.40;;;10.30;;
6864;SDS011;3471;49.678;8.388;2023-05-21T12:19:07;12.00;;;9.00;;
6864;SDS011;3471;49.678;8.388;2023-05-21T12:21:33;11.90;;;8.43;;
6864;SDS011;3471;49.678;8.388;2023-05-21T12:23:59;9.48;;;8.23;;
6864;SDS011;3471;49.678;8.388;2023-05-21T12:26:25;13.10;;;9.07;;
6864;SDS011;3471;49.678;8.388;2023-05-21T12:28:54;11.32;;;8.95;;
6864;SDS011;3471;49.678;8.388;2023-05-21T12:31:21;9.48;;;8.60;;
6864;SDS011;3471;49.678;8.388;2023-05-21T12:33:47;9.60;;;7.97;;
6864;SDS011;3471;49.678;8.388;2023-05-21T12:36:48;10.07;;;7.93;;
6864;SDS011;3471;49.678;8.388;2023-05-21T12:39:10;8.90;;;7.93;;
6864;SDS011;3471;49.678;8.388;2023-05-21T12:41:35;16.13;;;8.43;;
6864;SDS011;3471;49.678;8.388;2023-05-21T12:44:01;8.15;;;7.35;;
6864;SDS011;3471;49.678;8.388;2023-05-21T12:46:28;8.90;;;7.80;;
6864;SDS011;3471;49.678;8.388;2023-05-21T12:48:54;9.13;;;8.30;;
6864;SDS011;3471;49.678;8.388;2023-05-21T12:51:20;8.85;;;7.30;;
6864;SDS011;3471;49.678;8.388;2023-05-21T12:53:46;8.30;;;7.40;;
6864;SDS011;3471;49.678;8.388;2023-05-21T12:56:12;9.75;;;8.85;;
6864;SDS011;3471;49.678;8.388;2023-05-21T12:58:39;13.70;;;8.02;;
6864;SDS011;3471;49.678;8.388;2023-05-21T13:01:06;8.60;;;7.70;;
6864;SDS011;3471;49.678;8.388;2023-05-21T13:03:36;9.25;;;7.97;;
6864;SDS011;3471;49.678;8.388;2023-05-21T13:06:06;9.63;;;8.63;;
6864;SDS011;3471;49.678;8.388;2023-05-21T13:08:35;9.65;;;7.82;;
6864;SDS011;3471;49.678;8.388;2023-05-21T13:11:00;14.32;;;10.35;;
6864;SDS011;3471;49.678;8.388;2023-05-21T13:13:27;8.40;;;7.57;;
6864;SDS011;3471;49.678;8.388;2023-05-21T13:15:53;11.82;;;8.90;;
6864;SDS011;3471;49.678;8.388;2023-05-21T13:18:19;8.65;;;7.85;;
6864;SDS011;3471;49.678;8.388;2023-05-21T13:20:45;8.63;;;7.75;;
6864;SDS011;3471;49.678;8.388;2023-05-21T13:23:11;9.75;;;8.65;;
6864;SDS011;3471;49.678;8.388;2023-05-21T13:25:38;10.98;;;8.27;;
6864;SDS011;3471;49.678;8.388;2023-05-21T13:28:04;10.48;;;9.48;;
6864;SDS011;3471;49.678;8.388;2023-05-21T13:30:30;9.57;;;8.13;;
6864;SDS011;3471;49.678;8.388;2023-05-21T13:32:57;9.07;;;8.13;;
6864;SDS011;3471;49.678;8.388;2023-05-21T13:35:23;8.50;;;7.60;;
6864;SDS011;3471;49.678;8.388;2023-05-21T13:37:49;7.75;;;6.95;;
6864;SDS011;3471;49.678;8.388;2023-05-21T13:40:14;9.15;;;7.97;;
6864;SDS011;3471;49.678;8.388;2023-05-21T13:42:44;9.15;;;7.60;;
6864;SDS011;3471;49.678;8.388;2023-05-21T13:45:12;8.55;;;7.63;;
6864;SDS011;3471;49.678;8.388;2023-05-21T13:47:40;7.00;;;6.40;;
6864;SDS011;3471;49.678;8.388;2023-05-21T13:50:06;7.88;;;7.10;;
6864;SDS011;3471;49.678;8.388;2023-05-21T13:52:33;7.57;;;6.88;;
6864;SDS011;3471;49.678;8.388;2023-05-21T13:54:58;8.47;;;7.57;;
6864;SDS011;3471;49.678;8.388;2023-05-21T13:57:24;22.40;;;7.73;;
6864;SDS011;3471;49.678;8.388;2023-05-21T13:59:51;10.57;;;9.57;;
6864;SDS011;3471;49.678;8.388;2023-05-21T14:02:17;8.10;;;7.30;;
6864;SDS011;3471;49.678;8.388;2023-05-21T14:04:42;16.60;;;7.60;;
6864;SDS011;3471;49.678;8.388;2023-05-21T14:07:08;9.02;;;8.20;;
6864;SDS011;3471;49.678;8.388;2023-05-21T14:09:35;11.73;;;6.30;;
6864;SDS011;3471;49.678;8.388;2023-05-21T14:12:01;9.38;;;7.60;;
6864;SDS011;3471;49.678;8.388;2023-05-21T14:14:28;10.18;;;9.25;;
6864;SDS011;3471;49.678;8.388;2023-05-21T14:16:55;7.70;;;7.00;;
6864;SDS011;3471;49.678;8.388;2023-05-21T14:19:21;9.80;;;7.17;;
6864;SDS011;3471;49.678;8.388;2023-05-21T14:21:46;8.05;;;7.18;;
6864;SDS011;3471;49.678;8.388;2023-05-21T14:24:12;10.07;;;7.80;;
6864;SDS011;3471;49.678;8.388;2023-05-21T14:26:40;7.90;;;7.20;;
6864;SDS011;3471;49.678;8.388;2023-05-21T14:29:06;7.60;;;6.90;;
6864;SDS011;3471;49.678;8.388;2023-05-21T14:31:32;10.13;;;7.43;;
6864;SDS011;3471;49.678;8.388;2023-05-21T14:33:58;9.30;;;7.20;;
6864;SDS011;3471;49.678;8.388;2023-05-21T14:36:23;6.53;;;5.93;;
6864;SDS011;3471;49.678;8.388;2023-05-21T14:38:49;8.43;;;7.47;;
6864;SDS011;3471;49.678;8.388;2023-05-21T14:41:14;8.48;;;6.60;;
6864;SDS011;3471;49.678;8.388;2023-05-21T14:43:40;6.13;;;5.53;;
6864;SDS011;3471;49.678;8.388;2023-05-21T14:46:05;6.13;;;5.53;;
6864;SDS011;3471;49.678;8.388;2023-05-21T14:48:31;7.33;;;6.50;;
6864;SDS011;3471;49.678;8.388;2023-05-21T14:50:56;14.82;;;7.43;;
6864;SDS011;3471;49.678;8.388;2023-05-21T14:53:22;8.20;;;7.40;;
6864;SDS011;3471;49.678;8.388;2023-05-21T14:55:48;7.90;;;6.25;;
6864;SDS011;3471;49.678;8.388;2023-05-21T14:58:13;11.87;;;8.17;;
6864;SDS011;3471;49.678;8.388;2023-05-21T15:00:39;11.50;;;8.00;;
6864;SDS011;3471;49.678;8.388;2023-05-21T15:03:05;11.90;;;7.05;;
6864;SDS011;3471;49.678;8.388;2023-05-21T15:05:31;19.65;;;6.78;;
6864;SDS011;3471;49.678;8.388;2023-05-21T15:07:57;9.48;;;7.90;;
6864;SDS011;3471;49.678;8.388;2023-05-21T15:10:23;21.90;;;8.05;;
6864;SDS011;3471;49.678;8.388;2023-05-21T15:12:50;10.57;;;7.18;;
6864;SDS011;3471;49.678;8.388;2023-05-21T15:15:16;12.73;;;8.85;;
6864;SDS011;3471;49.678;8.388;2023-05-21T15:17:42;10.43;;;6.10;;
6864;SDS011;3471;49.678;8.388;2023-05-21T15:20:08;11.33;;;8.00;;
6864;SDS011;3471;49.678;8.388;2023-05-21T15:22:34;7.07;;;6.43;;
6864;SDS011;3471;49.678;8.388;2023-05-21T15:25:00;7.88;;;7.07;;